Portage Glacier, AK

2:14 AM AKST on November 23, 2014 (GMT -0900)
Portage Glacier | Change Station
CLOSE
Current Station
Airport
Location: Portage Glacier,
Elevation: 102 ft
Nearby Weather Stations

Elev 102 ft 60.78 °N, 148.84 °W | Updated 21 minutes ago

Overcast
Overcast
36 °F
Feels Like 29 °F
N
9
Wind Variable Wind from SSE

Today
High -- | Low -- °F
--% Chance of Precip.
Yesterday
High -- | Low -- °F
Precip. -- in
9:19 AM 4:03 PM
New Moon, 1% visible
Pressure 29.32 in
Visibility 10.0 miles
Clouds Scattered Clouds 1400 ft
Mostly Cloudy 1900 ft
Overcast 3100 ft
Windchill 29 °F
Dew Point 35 °F
Humidity 97%
Rainfall 0.13 in
Snow Depth Not available.
UV 0 out of 12
Pollen Not available.
Air Quality Not available.
Flu Activity Not available.
METAR PATO 231053Z AUTO 15008KT 10SM SCT014 BKN019 OVC031 02/02 A2932 RMK AO2 RAE46 SLP929 P0005 T00220017 TSNO

More Conditions Fewer Conditions

Pressure 29.32 in
Visibility 10.0 miles
Clouds Scattered Clouds 1400 ft
Mostly Cloudy 1900 ft
Overcast 3100 ft
Windchill 29 °F
Dew Point 35 °F
Humidity 97%
Rainfall 0.13 in
Snow Depth Not available.
UV 0 out of 12
Pollen Not available.
Air Quality Not available.
Flu Activity Not available.
METAR PATO 231053Z AUTO 15008KT 10SM SCT014 BKN019 OVC031 02/02 A2932 RMK AO2 RAE46 SLP929 P0005 T00220017 TSNO

More Conditions Fewer Conditions

10-Day Weather Forecast

Almanac

Astronomy

Nov. 23, 2014 Rise Set
Actual Time
Civil Twilight
Nautical Twilight
Astronomical Twilight
Moon
Length of Visible Light
Length of Day
Tomorrow will be .
, % of the Moon is Illuminated

Today's Extremes

State Highs State Lows

Community

WunderPhotos

Upload Photos

1,773,036 photos uploaded!

WunderBlogs® & News

Nearby

Air Quality

  Air Quality AQ Index Pollutant
Not available.

Snow Depth

Station Depth Elevation

Earthquake Activity

City Distance Mag. Time & Date
Minimum magnitude displayed is 2.5.

Coastal Water Temperatures

Place Temperature

Nearby Weather Stations